sensor_id;sensor_type;location;lat;lon;timestamp;pressure;altitude;pressure_sealevel;temperature;humidity
31403;BME280;18039;52.188;21.024;2023-06-22T00:01:21;75348.47;;;-141.45;100.00
31403;BME280;18039;52.188;21.024;2023-06-22T00:03:51;75352.53;;;-141.45;100.00
31403;BME280;18039;52.188;21.024;2023-06-22T00:06:18;75352.53;;;-141.45;100.00
31403;BME280;18039;52.188;21.024;2023-06-22T00:08:47;75364.69;;;-141.45;100.00
31403;BME280;18039;52.188;21.024;2023-06-22T00:11:14;75372.78;;;-141.45;100.00
31403;BME280;18039;52.188;21.024;2023-06-22T00:13:41;75368.75;;;-141.45;100.00
31403;BME280;18039;52.188;21.024;2023-06-22T00:16:08;75380.91;;;-141.45;100.00
31403;BME280;18039;52.188;21.024;2023-06-22T00:18:35;75380.91;;;-141.45;100.00
31403;BME280;18039;52.188;21.024;2023-06-22T00:21:03;75380.91;;;-141.45;100.00
31403;BME280;18039;52.188;21.024;2023-06-22T00:23:31;75376.84;;;-141.45;100.00
31403;BME280;18039;52.188;21.024;2023-06-22T00:26:02;75376.84;;;-141.45;100.00
31403;BME280;18039;52.188;21.024;2023-06-22T00:28:29;75380.91;;;-141.45;100.00
31403;BME280;18039;52.188;21.024;2023-06-22T00:30:57;75386.97;;;-141.45;100.00
31403;BME280;18039;52.188;21.024;2023-06-22T00:33:25;75386.97;;;-141.45;100.00
31403;BME280;18039;52.188;21.024;2023-06-22T00:35:52;75386.97;;;-141.45;100.00
31403;BME280;18039;52.188;21.024;2023-06-22T00:38:20;75389.00;;;-141.45;100.00
31403;BME280;18039;52.188;21.024;2023-06-22T00:40:48;75389.00;;;-141.45;100.00
31403;BME280;18039;52.188;21.024;2023-06-22T00:43:15;75389.00;;;-141.45;100.00
31403;BME280;18039;52.188;21.024;2023-06-22T00:45:42;75389.00;;;-141.45;100.00
31403;BME280;18039;52.188;21.024;2023-06-22T00:48:09;75389.00;;;-141.45;100.00
31403;BME280;18039;52.188;21.024;2023-06-22T00:50:38;75384.97;;;-141.45;100.00
31403;BME280;18039;52.188;21.024;2023-06-22T00:53:07;75389.00;;;-141.45;100.00
31403;BME280;18039;52.188;21.024;2023-06-22T00:55:42;75389.00;;;-141.45;100.00
31403;BME280;18039;52.188;21.024;2023-06-22T00:58:19;75393.06;;;-141.45;100.00
31403;BME280;18039;52.188;21.024;2023-06-22T01:00:49;75393.06;;;-141.45;100.00
31403;BME280;18039;52.188;21.024;2023-06-22T01:03:16;75395.09;;;-141.45;100.00
31403;BME280;18039;52.188;21.024;2023-06-22T01:05:46;75386.97;;;-141.45;100.00
31403;BME280;18039;52.188;21.024;2023-06-22T01:08:39;75384.97;;;-141.45;100.00
31403;BME280;18039;52.188;21.024;2023-06-22T01:11:19;75382.94;;;-141.45;100.00
31403;BME280;18039;52.188;21.024;2023-06-22T01:14:00;75376.84;;;-141.45;100.00
31403;BME280;18039;52.188;21.024;2023-06-22T01:16:31;75376.84;;;-141.45;100.00
31403;BME280;18039;52.188;21.024;2023-06-22T01:21:46;75380.91;;;-141.45;100.00
31403;BME280;18039;52.188;21.024;2023-06-22T01:24:22;75384.97;;;-141.45;100.00
31403;BME280;18039;52.188;21.024;2023-06-22T01:27:00;75372.78;;;-141.45;100.00
31403;BME280;18039;52.188;21.024;2023-06-22T01:29:32;75376.84;;;-141.45;100.00
31403;BME280;18039;52.188;21.024;2023-06-22T01:32:02;75366.72;;;-141.45;100.00
31403;BME280;18039;52.188;21.024;2023-06-22T01:34:34;75364.69;;;-141.45;100.00
31403;BME280;18039;52.188;21.024;2023-06-22T01:37:06;75360.63;;;-141.45;100.00
31403;BME280;18039;52.188;21.024;2023-06-22T01:39:34;75354.56;;;-141.45;100.00
31403;BME280;18039;52.188;21.024;2023-06-22T01:42:03;75352.53;;;-141.45;100.00
31403;BME280;18039;52.188;21.024;2023-06-22T01:44:32;75348.47;;;-141.45;100.00
31403;BME280;18039;52.188;21.024;2023-06-22T01:47:00;75348.47;;;-141.45;100.00
31403;BME280;18039;52.188;21.024;2023-06-22T01:49:29;75348.47;;;-141.45;100.00
31403;BME280;18039;52.188;21.024;2023-06-22T01:51:57;75368.75;;;-141.45;100.00
31403;BME280;18039;52.188;21.024;2023-06-22T01:54:24;75374.81;;;-141.45;100.00
31403;BME280;18039;52.188;21.024;2023-06-22T01:56:51;75376.84;;;-141.45;100.00
31403;BME280;18039;52.188;21.024;2023-06-22T01:59:29;75384.97;;;-141.45;100.00
31403;BME280;18039;52.188;21.024;2023-06-22T02:02:06;75384.97;;;-141.45;100.00
31403;BME280;18039;52.188;21.024;2023-06-22T02:04:51;75393.06;;;-141.45;100.00
31403;BME280;18039;52.188;21.024;2023-06-22T02:07:23;75389.00;;;-141.45;100.00
31403;BME280;18039;52.188;21.024;2023-06-22T02:09:52;75384.97;;;-141.45;100.00
31403;BME280;18039;52.188;21.024;2023-06-22T02:12:22;75380.91;;;-141.45;100.00
31403;BME280;18039;52.188;21.024;2023-06-22T02:14:51;75389.00;;;-141.45;100.00
31403;BME280;18039;52.188;21.024;2023-06-22T02:17:19;75384.97;;;-141.45;100.00
31403;BME280;18039;52.188;21.024;2023-06-22T02:19:47;75376.84;;;-141.45;100.00
31403;BME280;18039;52.188;21.024;2023-06-22T02:22:14;75380.91;;;-141.45;100.00
31403;BME280;18039;52.188;21.024;2023-06-22T02:24:43;75395.09;;;-141.45;100.00
31403;BME280;18039;52.188;21.024;2023-06-22T02:27:11;75380.91;;;-141.45;100.00
31403;BME280;18039;52.188;21.024;2023-06-22T02:29:39;75380.91;;;-141.45;100.00
31403;BME280;18039;52.188;21.024;2023-06-22T02:32:08;75384.97;;;-141.45;100.00
31403;BME280;18039;52.188;21.024;2023-06-22T02:34:35;75376.84;;;-141.45;100.00
31403;BME280;18039;52.188;21.024;2023-06-22T02:37:04;75380.91;;;-141.45;100.00
31403;BME280;18039;52.188;21.024;2023-06-22T02:39:31;75384.97;;;-141.45;100.00
31403;BME280;18039;52.188;21.024;2023-06-22T02:41:59;75384.97;;;-141.45;100.00
31403;BME280;18039;52.188;21.024;2023-06-22T02:44:26;75384.97;;;-141.45;100.00
31403;BME280;18039;52.188;21.024;2023-06-22T02:46:54;75384.97;;;-141.45;100.00
31403;BME280;18039;52.188;21.024;2023-06-22T02:49:21;75380.91;;;-141.45;100.00
31403;BME280;18039;52.188;21.024;2023-06-22T02:51:49;75380.91;;;-141.45;100.00
31403;BME280;18039;52.188;21.024;2023-06-22T02:54:19;75384.97;;;-141.45;100.00
31403;BME280;18039;52.188;21.024;2023-06-22T02:56:49;75372.78;;;-141.45;100.00
31403;BME280;18039;52.188;21.024;2023-06-22T02:59:18;75376.84;;;-141.45;100.00
31403;BME280;18039;52.188;21.024;2023-06-22T03:01:53;75384.97;;;-141.45;100.00
31403;BME280;18039;52.188;21.024;2023-06-22T03:04:25;75384.97;;;-141.45;100.00
31403;BME280;18039;52.188;21.024;2023-06-22T03:06:53;75389.00;;;-141.45;100.00
31403;BME280;18039;52.188;21.024;2023-06-22T03:09:20;75389.00;;;-141.45;100.00
31403;BME280;18039;52.188;21.024;2023-06-22T03:11:48;75384.97;;;-141.45;100.00
31403;BME280;18039;52.188;21.024;2023-06-22T03:14:16;75389.00;;;-141.45;100.00
31403;BME280;18039;52.188;21.024;2023-06-22T03:16:44;75384.97;;;-141.45;100.00
31403;BME280;18039;52.188;21.024;2023-06-22T03:19:11;75380.91;;;-141.45;100.00
31403;BME280;18039;52.188;21.024;2023-06-22T03:21:39;75397.13;;;-141.45;100.00
31403;BME280;18039;52.188;21.024;2023-06-22T03:24:07;75393.06;;;-141.45;100.00
31403;BME280;18039;52.188;21.024;2023-06-22T03:26:35;75397.13;;;-141.45;100.00
31403;BME280;18039;52.188;21.024;2023-06-22T03:29:02;75389.00;;;-141.45;100.00
31403;BME280;18039;52.188;21.024;2023-06-22T03:31:30;75384.97;;;-141.45;100.00
31403;BME280;18039;52.188;21.024;2023-06-22T03:33:57;75397.13;;;-141.45;100.00
31403;BME280;18039;52.188;21.024;2023-06-22T03:36:25;75395.09;;;-141.45;100.00
31403;BME280;18039;52.188;21.024;2023-06-22T03:38:52;75389.00;;;-141.45;100.00
31403;BME280;18039;52.188;21.024;2023-06-22T03:41:20;75389.00;;;-141.45;100.00
31403;BME280;18039;52.188;21.024;2023-06-22T03:43:48;75386.97;;;-141.45;100.00
31403;BME280;18039;52.188;21.024;2023-06-22T03:46:15;75389.00;;;-141.45;100.00
31403;BME280;18039;52.188;21.024;2023-06-22T03:48:42;75384.97;;;-141.45;100.00
31403;BME280;18039;52.188;21.024;2023-06-22T03:51:10;75389.00;;;-141.45;100.00
31403;BME280;18039;52.188;21.024;2023-06-22T03:53:37;75382.94;;;-141.45;100.00
31403;BME280;18039;52.188;21.024;2023-06-22T03:56:04;75380.91;;;-141.45;100.00
31403;BME280;18039;52.188;21.024;2023-06-22T03:58:32;75389.00;;;-141.45;100.00
31403;BME280;18039;52.188;21.024;2023-06-22T04:01:00;75384.97;;;-141.45;100.00
31403;BME280;18039;52.188;21.024;2023-06-22T04:03:28;75372.78;;;-141.45;100.00
31403;BME280;18039;52.188;21.024;2023-06-22T04:05:55;75364.69;;;-141.45;100.00
31403;BME280;18039;52.188;21.024;2023-06-22T04:08:22;75364.69;;;-141.45;100.00
31403;BME280;18039;52.188;21.024;2023-06-22T04:10:50;75350.50;;;-141.45;100.00
31403;BME280;18039;52.188;21.024;2023-06-22T04:13:17;75348.47;;;-141.45;100.00
31403;BME280;18039;52.188;21.024;2023-06-22T04:15:45;75344.44;;;-141.45;100.00
31403;BME280;18039;52.188;21.024;2023-06-22T04:18:12;75340.38;;;-141.45;100.00
31403;BME280;18039;52.188;21.024;2023-06-22T04:20:40;75332.28;;;-141.45;100.00
31403;BME280;18039;52.188;21.024;2023-06-22T04:23:07;75336.31;;;-141.45;100.00
31403;BME280;18039;52.188;21.024;2023-06-22T04:25:35;75330.25;;;-141.45;100.00
31403;BME280;18039;52.188;21.024;2023-06-22T04:28:03;75328.22;;;-141.45;100.00
31403;BME280;18039;52.188;21.024;2023-06-22T04:30:33;75316.06;;;-141.45;100.00
31403;BME280;18039;52.188;21.024;2023-06-22T04:33:00;75312.00;;;-141.45;100.00
31403;BME280;18039;52.188;21.024;2023-06-22T04:35:27;75312.00;;;-141.45;100.00
31403;BME280;18039;52.188;21.024;2023-06-22T04:37:59;75301.88;;;-141.45;100.00
31403;BME280;18039;52.188;21.024;2023-06-22T04:40:27;75291.75;;;-141.45;100.00
31403;BME280;18039;52.188;21.024;2023-06-22T04:42:54;75283.63;;;-141.45;100.00
31403;BME280;18039;52.188;21.024;2023-06-22T04:45:21;75271.47;;;-141.45;100.00
31403;BME280;18039;52.188;21.024;2023-06-22T04:47:49;75263.38;;;-141.45;100.00
31403;BME280;18039;52.188;21.024;2023-06-22T04:50:16;75263.38;;;-141.45;100.00
31403;BME280;18039;52.188;21.024;2023-06-22T04:52:45;75259.31;;;-141.45;100.00
31403;BME280;18039;52.188;21.024;2023-06-22T04:55:12;75271.47;;;-141.45;100.00
31403;BME280;18039;52.188;21.024;2023-06-22T04:57:41;75271.47;;;-141.45;100.00
31403;BME280;18039;52.188;21.024;2023-06-22T05:00:12;75269.44;;;-141.45;100.00
31403;BME280;18039;52.188;21.024;2023-06-22T05:02:41;75269.44;;;-141.45;100.00
31403;BME280;18039;52.188;21.024;2023-06-22T05:05:09;75275.53;;;-141.45;100.00
31403;BME280;18039;52.188;21.024;2023-06-22T05:07:44;75285.66;;;-141.45;100.00
31403;BME280;18039;52.188;21.024;2023-06-22T05:10:14;75291.75;;;-141.45;100.00
31403;BME280;18039;52.188;21.024;2023-06-22T05:12:41;75287.69;;;-141.45;100.00
31403;BME280;18039;52.188;21.024;2023-06-22T05:15:09;75275.53;;;-141.45;100.00
31403;BME280;18039;52.188;21.024;2023-06-22T05:17:37;75285.66;;;-141.45;100.00
31403;BME280;18039;52.188;21.024;2023-06-22T05:20:12;75291.75;;;-141.45;100.00
31403;BME280;18039;52.188;21.024;2023-06-22T05:22:39;75287.69;;;-141.45;100.00
31403;BME280;18039;52.188;21.024;2023-06-22T05:25:09;75279.59;;;-141.45;100.00
31403;BME280;18039;52.188;21.024;2023-06-22T05:27:37;75287.69;;;-141.45;100.00
31403;BME280;18039;52.188;21.024;2023-06-22T05:30:08;75291.75;;;-141.45;100.00
31403;BME280;18039;52.188;21.024;2023-06-22T05:32:36;75289.72;;;-141.45;100.00
31403;BME280;18039;52.188;21.024;2023-06-22T05:35:04;75275.53;;;-141.45;100.00
31403;BME280;18039;52.188;21.024;2023-06-22T05:37:32;75283.63;;;-141.45;100.00
31403;BME280;18039;52.188;21.024;2023-06-22T05:39:59;75283.63;;;-141.45;100.00
31403;BME280;18039;52.188;21.024;2023-06-22T05:42:26;75267.44;;;-141.45;100.00
31403;BME280;18039;52.188;21.024;2023-06-22T05:44:54;75271.47;;;-141.45;100.00
31403;BME280;18039;52.188;21.024;2023-06-22T05:47:21;75279.59;;;-141.45;100.00
31403;BME280;18039;52.188;21.024;2023-06-22T05:49:50;75279.59;;;-141.45;100.00
31403;BME280;18039;52.188;21.024;2023-06-22T05:52:17;75271.47;;;-141.45;100.00
31403;BME280;18039;52.188;21.024;2023-06-22T05:54:44;75275.53;;;-141.45;100.00
31403;BME280;18039;52.188;21.024;2023-06-22T05:57:12;75289.72;;;-141.45;100.00
31403;BME280;18039;52.188;21.024;2023-06-22T05:59:39;75283.63;;;-141.45;100.00
31403;BME280;18039;52.188;21.024;2023-06-22T06:02:06;75277.56;;;-141.45;100.00
31403;BME280;18039;52.188;21.024;2023-06-22T06:04:34;75275.53;;;-141.45;100.00
31403;BME280;18039;52.188;21.024;2023-06-22T06:07:01;75263.38;;;-141.45;100.00
31403;BME280;18039;52.188;21.024;2023-06-22T06:09:29;75255.25;;;-141.45;100.00
31403;BME280;18039;52.188;21.024;2023-06-22T06:11:56;75267.44;;;-141.45;99.74
31403;BME280;18039;52.188;21.024;2023-06-22T06:14:23;75269.44;;;-141.45;100.00
31403;BME280;18039;52.188;21.024;2023-06-22T06:16:51;75271.47;;;-141.45;100.00
31403;BME280;18039;52.188;21.024;2023-06-22T06:19:18;75267.44;;;-141.45;99.52
31403;BME280;18039;52.188;21.024;2023-06-22T06:21:45;75279.59;;;-141.45;99.25
31403;BME280;18039;52.188;21.024;2023-06-22T06:24:13;75275.53;;;-141.45;98.40
31403;BME280;18039;52.188;21.024;2023-06-22T06:26:40;75283.63;;;-141.45;98.52
31403;BME280;18039;52.188;21.024;2023-06-22T06:29:10;75281.59;;;-141.45;99.01
31403;BME280;18039;52.188;21.024;2023-06-22T06:31:37;75279.59;;;-141.45;98.71
31403;BME280;18039;52.188;21.024;2023-06-22T06:34:04;75283.63;;;-141.45;99.21
31403;BME280;18039;52.188;21.024;2023-06-22T06:36:31;75275.53;;;-141.45;99.36
31403;BME280;18039;52.188;21.024;2023-06-22T06:38:58;75259.31;;;-141.45;98.37
31403;BME280;18039;52.188;21.024;2023-06-22T06:41:26;75251.22;;;-141.45;98.75
31403;BME280;18039;52.188;21.024;2023-06-22T06:43:54;75241.09;;;-141.45;98.27
31403;BME280;18039;52.188;21.024;2023-06-22T06:46:21;75245.13;;;-141.45;98.42
31403;BME280;18039;52.188;21.024;2023-06-22T06:48:48;75218.78;;;-141.45;97.44
31403;BME280;18039;52.188;21.024;2023-06-22T06:51:15;75218.78;;;-141.45;96.89
31403;BME280;18039;52.188;21.024;2023-06-22T06:53:43;75200.56;;;-141.45;96.86
31403;BME280;18039;52.188;21.024;2023-06-22T06:56:10;75178.28;;;-141.45;96.92
31403;BME280;18039;52.188;21.024;2023-06-22T06:58:41;75166.09;;;-141.45;95.58
31403;BME280;18039;52.188;21.024;2023-06-22T07:01:09;75155.97;;;-141.45;94.97
31403;BME280;18039;52.188;21.024;2023-06-22T07:03:36;75145.84;;;-141.45;94.73
31403;BME280;18039;52.188;21.024;2023-06-22T07:06:04;75125.59;;;-141.45;93.00
31403;BME280;18039;52.188;21.024;2023-06-22T07:08:31;75109.38;;;-141.45;91.24
31403;BME280;18039;52.188;21.024;2023-06-22T07:10:58;75101.28;;;-141.45;91.17
31403;BME280;18039;52.188;21.024;2023-06-22T07:13:28;75109.38;;;-141.45;92.56
31403;BME280;18039;52.188;21.024;2023-06-22T07:15:55;75105.31;;;-141.45;91.51
31403;BME280;18039;52.188;21.024;2023-06-22T07:18:23;75101.28;;;-141.45;90.69
31403;BME280;18039;52.188;21.024;2023-06-22T07:20:51;75109.38;;;-141.45;90.43
31403;BME280;18039;52.188;21.024;2023-06-22T07:23:18;75129.63;;;-141.45;91.25
31403;BME280;18039;52.188;21.024;2023-06-22T07:25:45;75133.69;;;-141.45;91.27
31403;BME280;18039;52.188;21.024;2023-06-22T07:28:13;75125.59;;;-141.45;90.04
31403;BME280;18039;52.188;21.024;2023-06-22T07:30:40;75109.38;;;-141.45;89.51
31403;BME280;18039;52.188;21.024;2023-06-22T07:33:07;75093.16;;;-141.45;87.76
31403;BME280;18039;52.188;21.024;2023-06-22T07:35:35;75081.00;;;-141.45;88.44
31403;BME280;18039;52.188;21.024;2023-06-22T07:38:03;75048.59;;;-141.45;85.48
31403;BME280;18039;52.188;21.024;2023-06-22T07:40:32;75048.59;;;-141.45;85.92
31403;BME280;18039;52.188;21.024;2023-06-22T07:43:01;75064.81;;;-141.45;85.86
31403;BME280;18039;52.188;21.024;2023-06-22T07:45:29;75066.81;;;-141.45;86.12
31403;BME280;18039;52.188;21.024;2023-06-22T07:47:56;75064.81;;;-141.45;84.71
31403;BME280;18039;52.188;21.024;2023-06-22T07:50:23;75044.53;;;-141.45;83.16
31403;BME280;18039;52.188;21.024;2023-06-22T07:52:51;75036.44;;;-141.45;83.38
31403;BME280;18039;52.188;21.024;2023-06-22T07:55:19;75020.22;;;-141.45;82.68
31403;BME280;18039;52.188;21.024;2023-06-22T07:57:49;75020.22;;;-141.45;83.34
31403;BME280;18039;52.188;21.024;2023-06-22T08:00:19;75024.28;;;-141.45;81.04
31403;BME280;18039;52.188;21.024;2023-06-22T08:02:47;75004.00;;;-141.45;79.12
31403;BME280;18039;52.188;21.024;2023-06-22T08:05:15;75008.06;;;-141.45;80.15
31403;BME280;18039;52.188;21.024;2023-06-22T08:07:49;75024.28;;;-141.45;79.83
31403;BME280;18039;52.188;21.024;2023-06-22T08:10:17;75016.16;;;-141.45;79.49
31403;BME280;18039;52.188;21.024;2023-06-22T08:12:45;75016.16;;;-141.45;79.23
31403;BME280;18039;52.188;21.024;2023-06-22T08:15:12;75012.13;;;-141.45;76.98
31403;BME280;18039;52.188;21.024;2023-06-22T08:17:40;75012.13;;;-141.45;78.39
31403;BME280;18039;52.188;21.024;2023-06-22T08:20:08;75016.16;;;-141.45;77.65
31403;BME280;18039;52.188;21.024;2023-06-22T08:22:37;75008.06;;;-141.45;77.15
31403;BME280;18039;52.188;21.024;2023-06-22T08:25:07;74999.97;;;-141.45;75.35
31403;BME280;18039;52.188;21.024;2023-06-22T08:27:36;74971.59;;;-141.45;73.30
31403;BME280;18039;52.188;21.024;2023-06-22T08:30:04;74971.59;;;-141.45;73.42
31403;BME280;18039;52.188;21.024;2023-06-22T08:32:31;74967.53;;;-141.45;73.78
31403;BME280;18039;52.188;21.024;2023-06-22T08:35:02;74971.59;;;-141.45;74.75
31403;BME280;18039;52.188;21.024;2023-06-22T08:37:29;74955.38;;;-141.45;74.50
31403;BME280;18039;52.188;21.024;2023-06-22T08:40:06;74939.19;;;-141.45;71.90
31403;BME280;18039;52.188;21.024;2023-06-22T08:42:40;74939.19;;;-141.45;71.64
31403;BME280;18039;52.188;21.024;2023-06-22T08:45:09;74933.09;;;-141.45;72.27
31403;BME280;18039;52.188;21.024;2023-06-22T08:47:37;74916.88;;;-141.45;70.61
31403;BME280;18039;52.188;21.024;2023-06-22T08:50:05;74910.81;;;-141.45;71.38
31403;BME280;18039;52.188;21.024;2023-06-22T08:52:33;74906.75;;;-141.45;69.14
31403;BME280;18039;52.188;21.024;2023-06-22T08:55:01;74914.88;;;-141.45;68.19
31403;BME280;18039;52.188;21.024;2023-06-22T08:57:28;74892.56;;;-141.45;68.11
31403;BME280;18039;52.188;21.024;2023-06-22T08:59:57;74910.81;;;-141.45;70.26
31403;BME280;18039;52.188;21.024;2023-06-22T09:02:27;74914.88;;;-141.45;70.17
31403;BME280;18039;52.188;21.024;2023-06-22T09:04:58;74890.56;;;-141.45;68.06
31403;BME280;18039;52.188;21.024;2023-06-22T09:07:26;74886.50;;;-141.45;67.85
31403;BME280;18039;52.188;21.024;2023-06-22T09:09:56;74892.56;;;-141.45;68.52
31403;BME280;18039;52.188;21.024;2023-06-22T09:12:23;74886.50;;;-141.45;67.28
31403;BME280;18039;52.188;21.024;2023-06-22T09:14:54;74890.56;;;-141.45;66.82
31403;BME280;18039;52.188;21.024;2023-06-22T09:17:22;74872.31;;;-141.45;67.28
31403;BME280;18039;52.188;21.024;2023-06-22T09:19:49;74862.19;;;-141.45;63.22
31403;BME280;18039;52.188;21.024;2023-06-22T09:22:17;74856.09;;;-141.45;63.87
31403;BME280;18039;52.188;21.024;2023-06-22T09:24:44;74858.13;;;-141.45;62.40
31403;BME280;18039;52.188;21.024;2023-06-22T09:27:12;74848.00;;;-141.45;63.65
31403;BME280;18039;52.188;21.024;2023-06-22T09:29:39;74845.97;;;-141.45;63.59
31403;BME280;18039;52.188;21.024;2023-06-22T09:32:07;74850.03;;;-141.45;63.36
31403;BME280;18039;52.188;21.024;2023-06-22T09:34:34;74841.94;;;-141.45;62.27
31403;BME280;18039;52.188;21.024;2023-06-22T09:37:02;74845.97;;;-141.45;61.50
31403;BME280;18039;52.188;21.024;2023-06-22T09:39:29;74845.97;;;-141.45;62.47
31403;BME280;18039;52.188;21.024;2023-06-22T09:42:00;74837.88;;;-141.45;61.93
31403;BME280;18039;52.188;21.024;2023-06-22T09:44:28;74825.72;;;-141.45;60.44
31403;BME280;18039;52.188;21.024;2023-06-22T09:46:55;74817.63;;;-141.45;61.35
31403;BME280;18039;52.188;21.024;2023-06-22T09:49:22;74805.47;;;-141.45;60.22
31403;BME280;18039;52.188;21.024;2023-06-22T09:52:10;74791.28;;;-141.45;60.84
31403;BME280;18039;52.188;21.024;2023-06-22T09:54:38;74769.00;;;-141.45;59.17
31403;BME280;18039;52.188;21.024;2023-06-22T09:57:05;74777.09;;;-141.45;58.67
31403;BME280;18039;52.188;21.024;2023-06-22T09:59:32;74771.00;;;-141.45;58.12
31403;BME280;18039;52.188;21.024;2023-06-22T10:02:00;74756.84;;;-141.45;58.82
31403;BME280;18039;52.188;21.024;2023-06-22T10:04:27;74752.78;;;-141.45;58.86
31403;BME280;18039;52.188;21.024;2023-06-22T10:06:55;74756.84;;;-141.45;58.69
31403;BME280;18039;52.188;21.024;2023-06-22T10:09:22;74752.78;;;-141.45;58.24
31403;BME280;18039;52.188;21.024;2023-06-22T10:11:50;74740.63;;;-141.45;58.49
31403;BME280;18039;52.188;21.024;2023-06-22T10:14:17;74736.56;;;-141.45;58.83
31403;BME280;18039;52.188;21.024;2023-06-22T10:16:45;74712.25;;;-141.45;57.27
31403;BME280;18039;52.188;21.024;2023-06-22T10:19:11;74706.19;;;-141.45;56.64
31403;BME280;18039;52.188;21.024;2023-06-22T10:21:39;74708.22;;;-141.45;56.66
31403;BME280;18039;52.188;21.024;2023-06-22T10:24:06;74708.22;;;-141.45;56.05
31403;BME280;18039;52.188;21.024;2023-06-22T10:26:35;74679.84;;;-141.45;55.02
31403;BME280;18039;52.188;21.024;2023-06-22T10:29:03;74687.94;;;-141.45;55.16
31403;BME280;18039;52.188;21.024;2023-06-22T10:31:33;74679.84;;;-141.45;55.74
31403;BME280;18039;52.188;21.024;2023-06-22T10:34:00;74687.94;;;-141.45;56.98
31403;BME280;18039;52.188;21.024;2023-06-22T10:36:28;74673.78;;;-141.45;57.40
31403;BME280;18039;52.188;21.024;2023-06-22T10:38:55;74643.38;;;-141.45;57.09
31403;BME280;18039;52.188;21.024;2023-06-22T10:41:23;74647.44;;;-141.45;56.85
31403;BME280;18039;52.188;21.024;2023-06-22T10:43:50;74647.44;;;-141.45;57.18
31403;BME280;18039;52.188;21.024;2023-06-22T10:46:18;74643.38;;;-141.45;55.80
31403;BME280;18039;52.188;21.024;2023-06-22T10:48:45;74639.31;;;-141.45;56.45
31403;BME280;18039;52.188;21.024;2023-06-22T10:51:13;74635.28;;;-141.45;55.95
31403;BME280;18039;52.188;21.024;2023-06-22T10:53:40;74619.06;;;-141.45;56.09
31403;BME280;18039;52.188;21.024;2023-06-22T10:56:08;74623.13;;;-141.45;57.00
31403;BME280;18039;52.188;21.024;2023-06-22T10:58:35;74615.00;;;-141.45;55.47
31403;BME280;18039;52.188;21.024;2023-06-22T11:01:03;74610.97;;;-141.45;56.50
31403;BME280;18039;52.188;21.024;2023-06-22T11:03:30;74602.84;;;-141.45;55.99
31403;BME280;18039;52.188;21.024;2023-06-22T11:05:58;74582.59;;;-141.45;54.87
31403;BME280;18039;52.188;21.024;2023-06-22T11:08:25;74578.53;;;-141.45;54.46
31403;BME280;18039;52.188;21.024;2023-06-22T11:10:52;74580.56;;;-141.45;54.65
31403;BME280;18039;52.188;21.024;2023-06-22T11:13:19;74574.50;;;-141.45;54.36
31403;BME280;18039;52.188;21.024;2023-06-22T11:15:47;74562.34;;;-141.45;52.92
31403;BME280;18039;52.188;21.024;2023-06-22T11:18:14;74564.38;;;-141.45;53.78
31403;BME280;18039;52.188;21.024;2023-06-22T11:20:42;74558.28;;;-141.45;53.64
31403;BME280;18039;52.188;21.024;2023-06-22T11:23:10;74542.09;;;-141.45;53.04
31403;BME280;18039;52.188;21.024;2023-06-22T11:25:38;74538.03;;;-141.45;53.76
31403;BME280;18039;52.188;21.024;2023-06-22T11:28:06;74521.81;;;-141.45;52.53
31403;BME280;18039;52.188;21.024;2023-06-22T11:30:33;74525.88;;;-141.45;55.14
31403;BME280;18039;52.188;21.024;2023-06-22T11:33:01;74521.81;;;-141.45;53.72
31403;BME280;18039;52.188;21.024;2023-06-22T11:35:29;74513.72;;;-141.45;53.78
31403;BME280;18039;52.188;21.024;2023-06-22T11:37:56;74513.72;;;-141.45;52.25
31403;BME280;18039;52.188;21.024;2023-06-22T11:40:24;74501.56;;;-141.45;51.45
31403;BME280;18039;52.188;21.024;2023-06-22T11:42:51;74507.63;;;-141.45;52.22
31403;BME280;18039;52.188;21.024;2023-06-22T11:45:19;74505.63;;;-141.45;52.29
31403;BME280;18039;52.188;21.024;2023-06-22T11:47:47;74489.41;;;-141.45;52.17
31403;BME280;18039;52.188;21.024;2023-06-22T11:50:14;74497.50;;;-141.45;51.98
31403;BME280;18039;52.188;21.024;2023-06-22T11:52:41;74499.53;;;-141.45;50.77
31403;BME280;18039;52.188;21.024;2023-06-22T11:55:09;74493.47;;;-141.45;51.22
31403;BME280;18039;52.188;21.024;2023-06-22T11:57:37;74477.25;;;-141.45;51.09
31403;BME280;18039;52.188;21.024;2023-06-22T12:00:05;74477.25;;;-141.45;50.83
31403;BME280;18039;52.188;21.024;2023-06-22T12:02:44;74489.41;;;-141.45;52.00
31403;BME280;18039;52.188;21.024;2023-06-22T12:05:12;74493.47;;;-141.45;51.14
31403;BME280;18039;52.188;21.024;2023-06-22T12:07:40;74489.41;;;-141.45;52.01
31403;BME280;18039;52.188;21.024;2023-06-22T12:10:08;74469.16;;;-141.45;51.61
31403;BME280;18039;52.188;21.024;2023-06-22T12:12:35;74457.00;;;-141.45;52.46
31403;BME280;18039;52.188;21.024;2023-06-22T12:15:03;74424.59;;;-141.45;52.63
31403;BME280;18039;52.188;21.024;2023-06-22T12:17:31;74428.63;;;-141.45;50.84
31403;BME280;18039;52.188;21.024;2023-06-22T12:19:58;74424.59;;;-141.45;49.43
31403;BME280;18039;52.188;21.024;2023-06-22T12:22:26;74434.72;;;-141.45;49.21
31403;BME280;18039;52.188;21.024;2023-06-22T12:24:53;74440.78;;;-141.45;49.49
31403;BME280;18039;52.188;21.024;2023-06-22T12:27:20;74436.72;;;-141.45;51.07
31403;BME280;18039;52.188;21.024;2023-06-22T12:29:48;74410.41;;;-141.45;49.35
31403;BME280;18039;52.188;21.024;2023-06-22T12:32:15;74402.28;;;-141.45;48.65
31403;BME280;18039;52.188;21.024;2023-06-22T12:34:43;74412.44;;;-141.45;48.21